Weather observations for the past three days for
Stephens County Airport
Metric (Imperial)
Date Time (cdt) Wind (kph) Vis. (km) Weather Sky Cond. Temperature (ºC) Relative Humidity Wind Chill (°C) Heat Index (°C) Pressure Precipitation (cm)
Air Dwpt 6 hour altimeter (cm) sea level (mb) 1 hr 3 hr 6 hr
Max. Min.
10 17:55 N 15 16.09 Thunderstorm in Vicinity SCT019 OVC026 18.5 16.8 90% 76.45 0.0
10 17:35 E 26 G 39 8.05 Overcast OVC024 19 16.3 84% 76.25 0.0
10 17:15 E 30 G 41 8.05 Thunderstorm in Vicinity OVC024 19 17.1 89% 76.23 0.0
10 16:55 NE 22 G 30 8.05 Thunderstorm in Vicinity SCT014 OVC024 18.7 17.8 95% 76.17 0.0
10 16:35 NE 20 G 37 8.05 Thunderstorm in Vicinity SCT014 OVC024 18.6 18.3 98% 76.23 0.0
10 16:15 NE 17 G 28 8.05 Thunderstorm in Vicinity SCT012 BKN024 BKN120 18.8 18.8 100% 76.23 0.0
10 15:55 NE 22 G 31 11.27 Thunderstorm SCT014 SCT022 SCT120 18.9 18.7 99% 76.15 0.0 1.42 1.42
10 15:35 E 13 1.61 Thunderstorm SCT004 BKN014 OVC020 19.9 18.5 92% 76.25 0.0 1.19
10 15:15 E 26 G 37 8.05 Thunderstorm SCT026 SCT034 BKN040 21.5 18 81% 76.15 0.0 0.1
10 14:55 NE 30 G 39 16.09 Thunderstorm in Vicinity SCT037 SCT048 SCT065 22.7 17.5 73% 76.07 0.0
10 14:35 NE 26 G 43 11.27 Thunderstorm in Vicinity SCT047 SCT120 24.3 17.5 66% 25 76.1 0.0
10 14:15 E 26 G 44 11.27 Partly Cloudy SCT029 SCT035 SCT041 25.2 17.5 62% 26 76.1 0.0
10 13:55 NE 30 G 48 8.05 Mostly Cloudy SCT035 BKN041 BKN050 28 18.8 57% 29 76.1 0.0
10 13:35 E 19 G 30 8.05 Partly Cloudy SCT065 SCT090 29.5 20.4 58% 32 76.1 0.0
10 13:15 NE 11 8.05 Mostly Cloudy SCT041 SCT049 BKN065 30 19.5 53% 32 76.1 0.0
10 12:55 NE 13 8.05 Mostly Cloudy SCT043 BKN049 30 19.8 30 21.1 54% 32 76.1 0.0
10 12:35 Calm 8.05 Partly Cloudy SCT043 SCT049 29.3 19.8 57% 31 76.1 0.0
10 12:15 Calm 8.05 Partly Cloudy SCT033 SCT041 28.9 19.9 58% 31 76.1 0.0
10 11:55 Calm 6.44 Mostly Cloudy BKN035 BKN043 28.5 19.8 59% 30 76.1 0.0
10 11:35 Calm 8.05 Partly Cloudy SCT030 28.2 19.7 60% 30 76.07 0.0
10 11:15 Calm 6.44 Mostly Cloudy BKN030 27.2 19.6 63% 29 76.07 0.0
10 10:55 Calm 8.05 Partly Cloudy SCT025 27.4 19.6 62% 29 76.05 0.0
10 10:35 SE 15 8.05 Fair CLR 26.8 19.5 64% 28 76.05 0.0
10 10:15 SE 9 6.44 Fair CLR 25.8 19.4 68% 27 76.02 0.0
10 09:55 SE 19 11.27 Fair CLR 26 19.5 67% 27 76 0.0
10 09:35 SE 19 6.44 Fair CLR 25.1 19.2 70% 26 76.02 0.0
10 09:15 SE 15 6.44 Fair CLR 24.6 19.1 72% 25 76.05 0.0
10 08:55 SE 19 8.05 Fair CLR 24.2 19.2 74% 25 76.05 0.0
10 08:35 SE 19 6.44 Fair CLR 23.8 19.2 76% 76.02 0.0
10 08:15 SE 17 6.44 Fair CLR 23.1 19.5 80% 76 0.0
10 07:55 SE 15 8.05 Fair CLR 22.3 19.5 84% 76 0.0
10 07:35 SE 15 6.44 Fair CLR 21.7 19.5 87% 76 0.0
10 07:15 E 9 6.44 Fair CLR 21.3 19.5 90% 76 0.0
10 06:55 E 7 6.44 Fair CLR 21.2 19.2 24.9 21.2 88% 75.97 0.0
10 06:35 E 9 8.05 Fair CLR 21.5 19 86% 75.95 0.0
10 06:15 E 11 11.27 Fair CLR 22 18.8 82% 75.92 0.0
10 05:55 E 9 11.27 Fair CLR 22.7 18.6 78% 75.9 0.0
10 05:35 SE 9 11.27 Fair CLR 23.6 18.5 73% 75.84 0.0
10 05:15 SE 9 11.27 Fair CLR 23.5 18.5 74% 75.79 0.0
10 04:55 SE 13 11.27 Fair CLR 23.6 18.4 73% 75.77 0.0
10 04:35 E 15 11.27 Fair CLR 23.2 18 73% 75.77 0.0
10 04:15 E 7 11.27 Fair CLR 23.5 17.7 70% 75.74 0.0
10 03:55 SE 9 11.27 Fair CLR 23.5 17.2 68% 75.69 0.0
10 03:35 SE 7 11.27 Fair CLR 23.7 17 66% 75.69 0.0
10 03:15 SE 9 11.27 Fair CLR 24.2 16.8 63% 25 75.67 0.0
10 02:55 S 17 11.27 Fair CLR 24.3 16.5 62% 25 75.64 0.0
10 02:35 S 19 16.09 Fair CLR 24.5 16.6 62% 26 75.64 0.0
10 02:15 S 22 11.27 Fair CLR 24.7 16.6 61% 26 75.64 0.0
10 01:55 S 19 G 30 16.09 Fair CLR 24.7 16.6 61% 26 75.64 0.0
10 01:35 S 19 G 28 16.09 Fair CLR 24.8 16.5 60% 26 75.64 0.0
10 01:15 S 17 G 26 16.09 Fair CLR 24.7 16.2 59% 26 75.64 0.0
10 00:55 S 13 16.09 Fair CLR 24.7 16 32.5 24.7 59% 26 75.64 0.0
10 00:35 S 17 16.09 Fair CLR 25 15.8 57% 26 75.64 0.0
10 00:15 S 15 16.09 Fair CLR 25 15.7 56% 26 75.64 0.0
09 23:55 S 15 16.09 Fair CLR 25.1 15.6 56% 26 75.64 0.0
09 23:35 S 15 16.09 Fair CLR 25.2 15.5 55% 26 75.64 0.0
09 23:15 S 13 16.09 Fair CLR 25.2 15.2 54% 26 75.64 0.0
09 22:55 S 17 16.09 Fair CLR 25.5 14.8 52% 26 75.64 0.0
09 22:35 SE 15 16.09 Fair CLR 25.6 14.8 51% 26 75.62 0.0
09 22:15 S 15 16.09 Fair CLR 25.8 14.7 50% 26 75.64 0.0
09 21:55 SE 13 16.09 Fair CLR 25.8 14.6 50% 26 75.62 0.0
09 21:35 SE 13 16.09 Fair CLR 26.2 14.7 49% 27 75.62 0.0
09 21:15 SE 11 11.27 Fair CLR 26.8 14.6 47% 27 75.59 0.0
09 20:55 S 11 11.27 Fair CLR 27.6 14.7 45% 28 75.59 0.0
09 20:35 SE 15 16.09 Fair CLR 28.5 14.8 43% 28 75.57 0.0
09 20:15 S 13 16.09 Fair CLR 29.3 14.6 41% 29 75.59 0.0
09 19:55 S 13 8.05 Fair CLR 30.5 14 37% 30 75.57 0.0
09 19:35 S 13 8.05 Fair CLR 31.3 13.4 34% 30 75.57 0.0
09 19:15 S 15 11.27 Fair CLR 32.1 13.1 31% 31 75.57 0.0
09 18:55 S 15 8.05 Fair CLR 32.5 13.2 33.8 27.9 31% 32 75.57 0.0
09 18:35 S 17 8.05 Fair CLR 32.8 13.4 31% 32 75.57 0.0
09 18:15 S 17 G 26 8.05 Fair CLR 33.1 13.9 31% 32 75.57 0.0
09 17:55 S 19 G 26 8.05 Fair CLR 33.1 13.9 31% 32 75.59 0.0
09 17:35 S 17 G 28 8.05 Fair CLR 33.4 14.4 32% 33 75.59 0.0
09 17:15 S 13 8.05 Fair CLR 33.7 14.6 32% 33 75.59 0.0
09 16:55 Calm 8.05 Fair CLR 33.7 15.5 33% 34 75.59 0.0
09 16:35 Calm 8.05 Fair CLR 33.4 16.7 37% 34 75.59 0.0
09 16:15 SE 7 6.44 Fair CLR 33 17.3 39% 34 75.62 0.0
09 15:55 SE 13 8.05 Fair CLR 32.8 17 39% 33 75.67 0.0
09 15:35 S 9 8.05 Fair CLR 32 17.5 42% 33 75.69 0.0
09 15:15 Calm 8.05 Fair CLR 31.8 17.4 42% 32 75.69 0.0
09 14:55 Calm 8.05 Fair CLR 31.4 17.3 43% 32 75.72 0.0
09 14:35 Calm 8.05 Fair CLR 30.9 17.1 44% 31 75.74 0.0
09 14:15 Calm 8.05 Fair CLR 31 16.3 41% 31 75.77 0.0
09 13:55 Calm 8.05 Fair CLR 30 17.4 47% 31 75.79 0.0
09 13:35 Calm 8.05 Fair CLR 29.3 17.9 50% 30 75.82 0.0
09 13:15 Calm 8.05 Fair CLR 28.9 18.1 52% 30 75.84 0.0
09 12:55 Calm 8.05 Fair CLR 28.2 18.3 28.2 16.3 55% 29 75.87 0.0
09 12:35 Calm 8.05 Fair CLR 27.3 18.6 59% 28 75.9 0.0
09 12:15 Calm 8.05 Fair CLR 26.6 18.5 61% 28 75.9 0.0
09 11:55 Calm 6.44 Fair CLR 26.1 18.7 64% 27 75.92 0.0
09 11:35 Calm 8.05 Fair CLR 25.1 18.3 66% 26 75.92 0.0
09 11:15 Calm 6.44 Fair CLR 24.8 17.9 66% 26 75.92 0.0
09 10:55 Calm 8.05 Fair CLR 24 17.6 68% 25 75.95 0.0
09 10:35 Calm 8.05 Fair CLR 23.2 17.2 69% 75.92 0.0
09 10:15 Calm 8.05 Fair CLR 22.5 17 71% 75.95 0.0
09 09:55 Calm 8.05 Fair CLR 22 17.1 74% 75.95 0.0
09 09:35 Calm 6.44 Fair CLR 21.7 16.9 74% 75.95 0.0
09 09:15 Calm 8.05 Fair CLR 20.4 17.5 84% 75.95 0.0
09 08:55 Calm 6.44 Fair CLR 19.4 17 86% 75.95 0.0
09 08:35 Calm 6.44 Fair CLR 18.7 17.3 92% 75.97 0.0
09 08:15 Calm 8.05 Fair CLR 17.8 16.6 93% 75.95 0.0
09 07:55 Calm 8.05 Fair CLR 16.9 16.7 99% 75.92 0.0
09 07:35 Calm 6.44 Fair CLR 16.5 16.4 99% 75.9 0.0
09 07:15 Calm 8.05 Fair CLR 16.5 16.1 98% 75.87 0.0
09 06:55 Calm 6.44 Fair CLR 16.2 16.1 22 16.2 99% 75.82 0.0 0.81
09 06:35 Calm 8.05 Fair CLR 16.9 15.1 89% 75.79 0.0
09 06:15 Calm 8.05 Fair CLR 16.7 15 90% 75.74 0.0
09 05:55 Calm 11.27 Fair CLR 17.1 15 88% 75.74 0.0
09 05:35 Calm 8.05 Fair CLR 17.2 15 87% 75.79 0.0
09 05:15 Calm 11.27 Fair CLR 17.3 14.6 84% 75.79 0.0
09 04:55 Calm 11.27 Fair CLR 17.3 14.6 84% 75.79 0.0
09 04:35 Calm 8.05 Fair CLR 17.7 14.6 82% 75.82 0.0
09 04:15 Calm 8.05 Fair CLR 17.5 14.8 84% 75.77 0.0
09 03:55 Calm 11.27 Fair CLR 17.3 15.3 88% 75.74 0.0 0.81
09 03:35 Calm 8.05 Thunderstorm in Vicinity CLR 16.8 15.7 93% 75.74 0.0
09 03:15 Calm 8.05 Fair CLR 17 15.8 93% 75.72 0.0
09 02:55 Calm 11.27 Fair CLR 17.3 15.5 89% 75.74 0.0
09 02:35 NE 7 11.27 Fair CLR 17.7 15.3 86% 75.84 0.0
09 02:15 SE 13 11.27 Fair CLR 17.8 15.3 85% 75.82 0.0
09 01:55 E 30 G 48 11.27 Thunderstorm SCT006 SCT013 SCT021 17.5 15.7 89% 75.84 0.0 0.81
09 01:35 E 26 G 31 4.83 Thunderstorm SCT017 BKN031 OVC049 18.9 15.1 79% 76.05 0.0 0.28
09 01:15 N 26 G 35 8.05 Thunderstorm in Vicinity BKN017 BKN022 OVC027 21.7 17.4 77% 76.07 0.0
09 00:55 E 11 8.05 Overcast OVC017 21.9 18.9 26.9 21.8 83% 75.97 0.0
09 00:35 Calm 8.05 Partly Cloudy SCT017 SCT070 22.2 19.1 83% 75.97 0.0
09 00:15 S 11 8.05 Fair CLR 22.1 19 83% 75.77 0.0
08 23:55 S 13 8.05 Fair CLR 22.2 19 82% 75.74 0.0
08 23:35 S 13 8.05 Fair CLR 22.4 19 81% 75.72 0.0
08 23:15 S 13 8.05 Fair CLR 22.3 18.8 81% 75.72 0.0
08 22:55 S 17 11.27 Fair CLR 22.5 18.7 79% 75.69 0.0
08 22:35 S 22 11.27 Fair CLR 22.7 18.6 78% 75.67 0.0
08 22:15 S 15 11.27 Fair CLR 23 18.6 76% 75.64 0.0
08 21:55 S 19 16.09 Fair CLR 23.1 18.6 76% 75.64 0.0
08 21:35 S 13 11.27 Fair CLR 23.3 18.7 75% 75.64 0.0
08 21:15 S 9 8.05 Fair CLR 23.5 18.6 74% 75.64 0.0
08 20:55 S 13 11.27 Fair CLR 24 18.5 71% 25 75.64 0.0
08 20:35 S 15 11.27 Fair CLR 24.3 18.5 70% 25 75.64 0.0
08 20:15 S 13 8.05 Fair CLR 24.7 18.5 69% 26 75.62 0.0
08 19:55 S 15 8.05 Fair CLR 25.3 18.4 66% 26 75.59 0.0
08 19:35 S 15 G 30 6.44 Fair CLR 25.7 18.3 64% 27 75.59 0.0
08 19:15 S 19 G 28 8.05 Fair CLR 26.2 18.3 62% 27 75.59 0.0
08 18:55 SE 15 8.05 Fair CLR 27 18.5 28.5 24.3 60% 28 75.59 0.0
08 18:35 SE 19 G 26 8.05 Partly Cloudy SCT050 27.1 18.4 59% 28 75.59 0.0
08 18:15 SE 15 8.05 Partly Cloudy SCT050 27.1 18.2 58% 28 75.59 0.0
08 17:55 SE 17 G 28 6.44 Fair CLR 27.4 18.2 57% 28 75.59 0.0
08 17:35 SE 19 6.44 Fair CLR 27.6 18.1 56% 29 75.59 0.0
08 17:15 SE 20 6.44 Fair CLR 27.9 18.3 56% 29 75.59 0.0
08 16:55 S 22 G 28 6.44 Fair CLR 28.1 18.2 55% 29 75.59 0.0
08 16:35 SE 20 8.05 Fair CLR 28.5 18.2 54% 29 75.59 0.0
08 16:15 S 13 G 26 8.05 Partly Cloudy SCT035 28.2 18.1 54% 29 75.62 0.0
08 15:55 SE 6 8.05 Partly Cloudy SCT037 28 18.1 55% 29 75.67 0.0
08 15:35 Calm 8.05 Partly Cloudy SCT037 27.6 18.2 57% 29 75.69 0.0
08 15:15 S 9 6.44 Mostly Cloudy BKN035 27.1 18.2 58% 28 75.72 0.0
08 14:55 Calm 6.44 Overcast BKN035 OVC042 26.9 17.8 58% 28 75.74 0.0
08 14:35 SE 17 6.44 Mostly Cloudy BKN035 BKN043 27.7 17.9 55% 29 75.74 0.0
08 14:15 S 7 8.05 Partly Cloudy SCT033 27.1 17.6 56% 28 75.77 0.0
08 13:55 Calm 6.44 Fair CLR 26.8 17.4 56% 28 75.77 0.0
08 13:35 Calm 4.02 Thunderstorm in Vicinity CLR 25.5 16.8 59% 26 75.82 0.0
08 13:15 Calm 6.44 Partly Cloudy SCT024 25.1 16.8 60% 26 75.84 0.0
08 12:55 Calm 6.44 Mostly Cloudy BKN024 24.1 16.2 24.2 15.6 61% 25 75.87 0.0
08 12:35 Calm 8.05 Overcast OVC024 23.2 15.4 62% 75.92 0.0
08 11:55 S 11 6.44 Overcast OVC024 22.1 15 64% 75.97 0.0
08 11:35 S 9 8.05 Overcast OVC024 21.8 14.5 63% 76 0.0
08 11:15 S 11 8.05 Overcast OVC018 21.5 14.3 64% 76.02 0.0
08 10:55 S 13 6.44 Overcast OVC018 20.8 14.1 66% 76.02 0.0
08 10:35 SW 11 8.05 Overcast OVC016 20.6 13.6 64% 76.02 0.0
08 10:15 Calm 8.05 Overcast OVC016 19.8 13 65% 76.05 0.0
08 09:55 Calm 8.05 Overcast OVC014 19.4 12.3 64% 76.05 0.0
08 09:35 S 9 8.05 Overcast OVC016 18.8 11.7 64% 76.07 0.0
08 09:15 S 11 8.05 Overcast BKN016 OVC022 18.5 11.8 65% 76.07 0.0
08 08:55 S 11 8.05 Overcast OVC018 17.7 12.1 70% 76.1 0.0
08 08:35 Calm 6.44 Overcast BKN020 BKN028 OVC050 17.5 12 70% 76.1 0.0
08 08:15 Calm 8.05 Partly Cloudy SCT028 SCT036 SCT050 17 11.8 72% 76.1 0.0
08 07:55 Calm 8.05 Partly Cloudy SCT036 16.3 11.9 75% 76.07 0.0
08 07:35 S 7 8.05 Partly Cloudy SCT038 15.9 11.6 76% 76.05 0.0
08 07:15 Calm 8.05 Partly Cloudy SCT047 SCT060 SCT085 15.8 11.6 76% 76.05 0.0
08 06:55 Calm 8.05 Mostly Cloudy BKN047 BKN095 15.6 12.2 16.2 15.4 80% 76.07 0.0
08 06:35 Calm 11.27 Mostly Cloudy SCT044 BKN049 BKN095 15.5 12.3 81% 76.07 0.0
08 06:15 Calm 11.27 Mostly Cloudy SCT042 BKN048 BKN055 15.5 12.5 82% 76.1 0.0
08 05:55 Calm 8.05 Overcast BKN042 OVC055 15.7 12.5 81% 76.1 0.0
08 05:35 Calm 8.05 Overcast BKN044 OVC050 15.7 12.5 81% 76.1 0.0
08 05:15 Calm 11.27 Overcast OVC046 15.8 12.7 82% 76.1 0.0
08 04:55 Calm 8.05 Overcast OVC044 15.8 12.7 82% 76.1 0.0
08 04:35 Calm 8.05 Overcast OVC044 15.9 12.5 80% 76.12 0.0
08 04:15 Calm 11.27 Overcast BKN046 OVC060 16 12.5 80% 76.1 0.0
08 03:55 Calm 11.27 Overcast BKN046 OVC055 16 12.7 81% 76.1 0.0
08 03:35 Calm 11.27 Overcast OVC044 16 12.3 79% 76.15 0.0
08 03:15 Calm 8.05 Overcast OVC044 15.6 12.5 82% 76.12 0.0
08 02:55 Calm 8.05 Overcast BKN046 OVC055 15.5 12.5 82% 76.12 0.0
08 02:35 Calm 11.27 Mostly Cloudy BKN046 15.7 12.2 80% 76.12 0.0
08 02:15 Calm 8.05 Fair CLR 15.5 12.2 81% 76.12 0.0
08 01:55 Calm 11.27 Fair CLR 15.5 12.5 82% 76.15 0.0
08 01:35 Calm 11.27 Partly Cloudy SCT050 SCT070 15.6 13 85% 76.15 0.0
08 01:15 Calm 11.27 Mostly Cloudy BKN050 BKN080 BKN090 16 12.3 79% 76.17 0.0
08 00:55 Calm 8.05 Overcast BKN060 OVC085 16.3 12.2 21.4 16.3 77% 76.2 0.0
08 00:35 Calm 11.27 Overcast BKN060 BKN070 OVC100 16.5 12 75% 76.2 0.0
08 00:15 Calm 11.27 Mostly Cloudy SCT060 BKN070 BKN080 16.6 11.7 73% 76.17 0.0
07 23:55 Calm 11.27 Overcast SCT060 BKN090 OVC100 17 11.2 69% 76.23 0.0
07 23:35 Calm 11.27 Mostly Cloudy BKN090 16.9 10.6 67% 76.23 0.0
07 23:15 Calm 11.27 Partly Cloudy SCT100 17 10.7 67% 76.2 0.0
07 22:55 Calm 11.27 Mostly Cloudy BKN100 17.4 10.6 65% 76.2 0.0
07 22:35 Calm 11.27 Overcast OVC110 17.6 10.5 63% 76.2 0.0
07 22:15 Calm 11.27 Mostly Cloudy BKN110 17.6 10.4 63% 76.17 0.0
07 21:55 Calm 11.27 Mostly Cloudy BKN110 18.1 10.4 61% 76.15 0.0
07 21:35 S 7 11.27 Mostly Cloudy BKN110 18.3 10.5 61% 76.15 0.0
07 21:15 S 7 8.05 Mostly Cloudy BKN110 18.5 10.6 60% 76.12 0.0
07 20:55 SE 6 11.27 Partly Cloudy SCT110 18.7 10.8 60% 76.1 0.0
07 20:35 SE 7 8.05 Partly Cloudy SCT110 19.3 10.7 58% 76.1 0.0
07 20:15 SE 9 8.05 Partly Cloudy SCT110 20 10.6 55% 76.1 0.0
07 19:55 SE 7 8.05 Partly Cloudy SCT120 20.4 10.8 54% 76.1 0.0
07 19:35 S 7 6.44 Partly Cloudy SCT120 21 10.2 50% 76.1 0.0
07 19:15 SE 9 8.05 Fair CLR 21.3 10 49% 76.1 0.0
07 18:55 S 13 8.05 Fair CLR 21.3 10 25 21 49% 76.1 0.0
07 18:35 S 13 11.27 Fair CLR 22 10.2 47% 76.15 0.0
Date Time (cdt) Wind (kph) Vis. (km) Weather Sky Cond. Air Dwpt Max. Min. Relative Humidity Wind Chill (°C) Heat Index (°C) altimeter (cm) sea level (mb) 1 hr 3 hr 6 hr
6 hour
Temperature (ºC) Pressure Precipitation (cm)